Time;durP1;ratioP1;P1;durP2;ratioP2;P2;SDS_P1;SDS_P2;PMS_P1;PMS_P2;Temp;Humidity;BMP_temperature;BMP_pressure;BME280_temperature;BME280_humidity;BME280_pressure;Samples;Min_cycle;Max_cycle;Signal;HPM_P1;HPM_P2
2022/04/03 00:03:06;;;;;;;6.77;5.10;;;2.70;99.90;;;;;;10450134;28;20319;-69
2022/04/03 00:08:07;;;;;;;8.77;4.83;;;2.70;99.90;;;;;;10450008;28;20665;-70
2022/04/03 00:13:08;;;;;;;6.53;4.47;;;2.70;99.90;;;;;;10452158;28;20760;-70
2022/04/03 00:18:09;;;;;;;7.13;4.50;;;2.70;99.90;;;;;;10447545;28;20228;-70
2022/04/03 00:23:10;;;;;;;5.90;4.70;;;2.80;99.90;;;;;;10457361;28;20232;-69
2022/04/03 00:28:10;;;;;;;6.60;4.93;;;2.80;99.90;;;;;;10456317;28;20248;-69
2022/04/03 00:33:12;;;;;;;7.17;4.87;;;2.90;99.90;;;;;;10455858;28;20239;-69
2022/04/03 00:38:12;;;;;;;6.27;4.47;;;2.90;99.90;;;;;;10454719;28;20224;-69
2022/04/03 00:43:13;;;;;;;6.03;4.70;;;2.90;99.90;;;;;;10457393;28;20658;-70
2022/04/03 00:48:14;;;;;;;5.87;4.90;;;2.90;99.90;;;;;;10454974;28;20236;-69
2022/04/03 00:53:15;;;;;;;5.47;4.73;;;2.90;99.90;;;;;;10447621;28;20233;-70
2022/04/03 00:58:15;;;;;;;9.17;5.27;;;2.90;99.90;;;;;;10452608;28;20697;-70
2022/04/03 01:03:16;;;;;;;7.10;4.67;;;2.90;99.90;;;;;;10462703;28;20224;-67
2022/04/03 01:08:24;;;;;;;5.97;4.80;;;2.90;99.90;;;;;;10455711;28;20220;-68
2022/04/03 01:13:25;;;;;;;6.57;4.90;;;2.90;99.90;;;;;;10448518;28;20818;-68
2022/04/03 01:18:27;;;;;;;7.37;5.17;;;2.90;99.90;;;;;;10452654;28;20217;-69
2022/04/03 01:23:28;;;;;;;5.50;4.50;;;2.90;99.90;;;;;;10452608;28;20274;-68
2022/04/03 01:28:28;;;;;;;5.90;4.67;;;2.90;99.90;;;;;;10454542;28;20241;-69
2022/04/03 01:33:29;;;;;;;5.83;4.67;;;2.80;99.90;;;;;;10457159;28;20220;-69
2022/04/03 01:38:30;;;;;;;6.10;4.70;;;2.80;99.90;;;;;;10461154;28;20224;-69
2022/04/03 01:43:30;;;;;;;5.00;4.10;;;2.70;99.90;;;;;;10449126;28;20681;-68
2022/04/03 01:48:32;;;;;;;6.20;4.20;;;2.70;99.90;;;;;;10450725;28;20235;-69
2022/04/03 01:53:32;;;;;;;6.60;4.53;;;2.70;99.90;;;;;;10468225;28;20259;-69
2022/04/03 01:58:34;;;;;;;5.70;4.37;;;2.70;99.90;;;;;;10452323;28;20247;-68
2022/04/03 02:03:35;;;;;;;6.37;4.90;;;2.70;99.90;;;;;;10450855;28;20256;-68
2022/04/03 02:08:36;;;;;;;5.10;4.47;;;2.70;99.90;;;;;;10454153;28;20252;-68
2022/04/03 02:13:37;;;;;;;6.40;4.60;;;2.70;99.90;;;;;;10451215;28;20601;-68
2022/04/03 02:18:38;;;;;;;5.77;4.40;;;2.70;99.90;;;;;;10452048;28;20231;-69
2022/04/03 02:23:38;;;;;;;8.77;4.73;;;2.60;99.90;;;;;;10437213;28;20228;-69
2022/04/03 02:28:39;;;;;;;6.00;4.60;;;2.60;99.90;;;;;;10457418;28;20283;-69
2022/04/03 02:33:39;;;;;;;6.07;4.77;;;2.50;99.90;;;;;;10451617;28;20228;-68
2022/04/03 02:38:40;;;;;;;5.93;4.80;;;2.40;99.90;;;;;;10457304;28;20224;-68
2022/04/03 02:43:41;;;;;;;5.20;4.40;;;2.20;99.90;;;;;;10449864;28;20257;-68
2022/04/03 02:48:42;;;;;;;6.43;4.73;;;2.10;99.90;;;;;;10464468;28;20212;-67
2022/04/03 02:53:42;;;;;;;7.87;5.30;;;2.00;99.90;;;;;;10456585;28;20253;-69
2022/04/03 02:58:43;;;;;;;6.83;5.40;;;1.90;99.90;;;;;;10456499;28;20223;-69
2022/04/03 03:03:44;;;;;;;9.60;6.60;;;1.80;99.90;;;;;;10447951;28;20721;-68
2022/04/03 03:08:44;;;;;;;8.37;6.50;;;1.80;99.90;;;;;;10455789;28;20220;-69
2022/04/03 03:13:45;;;;;;;6.37;4.90;;;1.80;99.90;;;;;;10451930;28;20765;-69
2022/04/03 03:18:46;;;;;;;9.57;5.30;;;1.60;99.90;;;;;;10450025;28;20730;-69
2022/04/03 03:23:47;;;;;;;7.73;5.07;;;1.50;99.90;;;;;;10449359;28;20215;-70
2022/04/03 03:28:47;;;;;;;7.17;4.83;;;1.30;99.90;;;;;;10454191;28;20215;-70
2022/04/03 03:33:48;;;;;;;7.47;5.80;;;1.20;99.90;;;;;;10447653;28;20672;-69
2022/04/03 03:38:49;;;;;;;5.93;4.87;;;1.20;99.90;;;;;;10450701;28;20231;-68
2022/04/03 03:43:49;;;;;;;5.47;4.73;;;1.10;99.90;;;;;;10448201;28;20236;-68
2022/04/03 03:48:50;;;;;;;7.80;5.53;;;1.00;99.90;;;;;;10456579;28;20295;-68
2022/04/03 03:53:51;;;;;;;6.60;5.40;;;0.90;99.90;;;;;;10456904;28;20215;-68
2022/04/03 03:58:52;;;;;;;7.13;5.27;;;0.80;99.90;;;;;;10460804;28;20219;-68
2022/04/03 04:03:52;;;;;;;8.17;5.10;;;0.80;99.90;;;;;;10457803;28;20804;-68
2022/04/03 04:08:53;;;;;;;7.07;5.40;;;0.70;99.90;;;;;;10456828;28;20699;-69
2022/04/03 04:13:54;;;;;;;6.30;5.20;;;0.70;99.90;;;;;;10450193;28;20228;-68
2022/04/03 04:18:54;;;;;;;7.13;5.43;;;0.60;99.90;;;;;;10453317;28;20222;-68
2022/04/03 04:23:55;;;;;;;6.40;5.40;;;0.60;99.90;;;;;;10455921;28;20273;-70
2022/04/03 04:28:56;;;;;;;5.73;4.90;;;0.50;99.90;;;;;;10457450;28;20215;-69
2022/04/03 04:33:57;;;;;;;8.60;5.37;;;0.50;99.90;;;;;;10487097;28;20238;-71
2022/04/03 04:38:57;;;;;;;7.87;5.37;;;0.40;99.90;;;;;;10456554;28;20306;-69
2022/04/03 04:43:58;;;;;;;7.53;5.07;;;0.40;99.90;;;;;;10448652;28;20279;-68
2022/04/03 04:48:58;;;;;;;6.67;5.20;;;0.30;99.90;;;;;;10450139;28;20223;-69
2022/04/03 04:53:59;;;;;;;5.80;4.47;;;0.30;99.90;;;;;;10453410;28;20212;-68
2022/04/03 04:59:00;;;;;;;6.83;4.67;;;0.30;99.90;;;;;;10453646;28;20219;-68
2022/04/03 05:04:00;;;;;;;6.10;4.33;;;0.30;99.90;;;;;;10453129;28;20223;-68
2022/04/03 05:09:03;;;;;;;5.70;4.47;;;0.50;99.90;;;;;;10447861;28;20204;-69
2022/04/03 05:14:04;;;;;;;6.90;3.80;;;0.60;99.90;;;;;;10447123;28;20250;-69
2022/04/03 05:19:04;;;;;;;6.47;4.03;;;0.70;99.90;;;;;;10449551;28;20694;-68
2022/04/03 05:24:05;;;;;;;5.80;3.93;;;0.80;99.90;;;;;;10444517;28;20274;-67
2022/04/03 05:29:07;;;;;;;4.77;3.87;;;0.80;99.90;;;;;;10461270;28;20278;-67
2022/04/03 05:34:08;;;;;;;4.63;3.77;;;1.00;99.90;;;;;;10454146;28;20220;-67
2022/04/03 05:39:09;;;;;;;5.07;3.40;;;1.10;99.90;;;;;;10449629;28;20224;-67
2022/04/03 05:44:09;;;;;;;7.20;3.50;;;1.20;99.90;;;;;;10450868;28;20232;-67
2022/04/03 05:49:10;;;;;;;5.23;3.20;;;1.40;99.90;;;;;;10456748;28;20582;-68
2022/04/03 05:54:11;;;;;;;4.77;2.93;;;1.50;99.90;;;;;;10450906;28;20297;-68
2022/04/03 05:59:11;;;;;;;5.70;3.13;;;1.50;99.90;;;;;;10459274;28;20314;-68
2022/04/03 06:04:12;;;;;;;5.73;4.60;;;1.60;99.90;;;;;;10449576;28;20297;-68
2022/04/03 06:09:12;;;;;;;4.43;3.80;;;1.80;99.90;;;;;;10457233;28;20695;-67
2022/04/03 06:14:13;;;;;;;4.13;2.93;;;3.00;99.90;;;;;;10450910;28;20315;-68
2022/04/03 06:19:13;;;;;;;3.47;3.00;;;4.70;99.90;;;;;;10458924;28;20223;-69
2022/04/03 06:24:14;;;;;;;4.90;3.10;;;5.80;99.70;;;;;;10450312;28;20714;-69
2022/04/03 06:29:15;;;;;;;4.43;2.93;;;5.50;97.50;;;;;;10452252;28;20276;-68
2022/04/03 06:34:16;;;;;;;3.07;2.63;;;5.00;97.00;;;;;;10449144;28;20619;-68
2022/04/03 06:39:16;;;;;;;4.23;2.80;;;5.30;95.60;;;;;;10441051;28;20248;-67
2022/04/03 06:44:17;;;;;;;3.67;2.60;;;4.80;95.50;;;;;;10455580;28;20685;-67
2022/04/03 06:49:17;;;;;;;3.00;2.70;;;4.60;95.30;;;;;;10447091;28;20252;-67
2022/04/03 06:54:18;;;;;;;2.83;2.33;;;4.70;94.50;;;;;;10455115;28;20239;-67
2022/04/03 06:59:19;;;;;;;4.00;2.50;;;5.00;94.20;;;;;;10447709;28;20228;-68
2022/04/03 07:04:19;;;;;;;2.70;2.30;;;5.50;92.10;;;;;;10456147;28;20659;-69
2022/04/03 07:09:20;;;;;;;3.37;2.40;;;5.40;90.70;;;;;;10448349;28;20212;-67
2022/04/03 07:14:20;;;;;;;2.80;2.30;;;5.20;90.60;;;;;;10439038;28;20216;-69
2022/04/03 07:19:21;;;;;;;4.97;2.47;;;5.00;91.20;;;;;;10449239;28;20219;-68
2022/04/03 07:24:21;;;;;;;3.03;1.97;;;5.20;91.10;;;;;;10456393;28;20880;-68
2022/04/03 07:29:23;;;;;;;3.63;2.03;;;5.20;89.80;;;;;;10455342;28;20273;-69
2022/04/03 07:34:24;;;;;;;4.77;2.50;;;5.00;90.70;;;;;;10459430;28;20241;-68
2022/04/03 07:39:28;;;;;;;3.67;2.33;;;5.00;90.40;;;;;;10447888;28;20226;-69
2022/04/03 07:44:29;;;;;;;4.27;2.90;;;4.80;90.90;;;;;;10458373;28;20266;-69
2022/04/03 07:49:30;;;;;;;3.03;2.30;;;4.80;91.00;;;;;;10449363;28;20213;-69
2022/04/03 07:54:30;;;;;;;2.50;2.30;;;5.40;90.20;;;;;;10456844;28;20223;-71
2022/04/03 07:59:31;;;;;;;5.03;2.20;;;7.30;82.20;;;;;;10456054;28;20276;-70
2022/04/03 08:04:31;;;;;;;4.70;2.70;;;10.90;67.40;;;;;;10451844;28;20226;-69
2022/04/03 08:09:32;;;;;;;2.40;2.03;;;13.70;53.80;;;;;;10453295;28;20676;-71
2022/04/03 08:14:33;;;;;;;2.67;2.00;;;14.90;47.60;;;;;;10466338;28;20221;-69
2022/04/03 08:19:33;;;;;;;2.47;2.27;;;17.20;41.10;;;;;;10459069;28;20215;-69
2022/04/03 08:24:34;;;;;;;4.67;2.40;;;17.70;36.30;;;;;;10447287;28;20227;-70
2022/04/03 08:29:34;;;;;;;3.10;1.97;;;16.70;37.50;;;;;;10458231;28;20219;-69
2022/04/03 08:34:35;;;;;;;2.53;2.20;;;16.10;38.40;;;;;;10453220;28;20231;-71
2022/04/03 08:39:36;;;;;;;3.60;1.70;;;17.00;37.10;;;;;;10444567;28;20226;-71
2022/04/03 08:44:37;;;;;;;1.90;1.77;;;17.30;35.40;;;;;;10453714;28;20219;-72
2022/04/03 08:49:40;;;;;;;3.10;1.73;;;17.70;32.90;;;;;;10454805;28;20212;-71
2022/04/03 08:54:45;;;;;;;3.03;2.30;;;19.30;31.30;;;;;;10454603;28;20614;-71
2022/04/03 08:59:46;;;;;;;3.40;2.17;;;20.40;29.80;;;;;;10456485;28;20219;-74
2022/04/03 09:04:46;;;;;;;2.10;1.83;;;19.20;29.50;;;;;;10457087;28;20705;-71
2022/04/03 09:09:57;;;;;;;2.03;1.57;;;17.80;30.20;;;;;;10465297;28;20270;-68
2022/04/03 09:14:58;;;;;;;2.10;1.60;;;17.50;29.70;;;;;;10460358;28;20219;-71
2022/04/03 09:20:05;;;;;;;1.90;1.70;;;19.20;28.30;;;;;;10464709;28;20220;-71
2022/04/03 09:25:10;;;;;;;1.57;1.47;;;20.30;26.10;;;;;;10451502;28;20697;-71
2022/04/03 09:30:11;;;;;;;2.03;1.57;;;20.30;27.10;;;;;;10454239;28;20214;-69
2022/04/03 09:35:12;;;;;;;2.10;1.40;;;19.60;25.80;;;;;;10452308;28;20211;-70
2022/04/03 09:40:29;;;;;;;1.23;0.90;;;18.50;26.30;;;;;;10449750;28;21023;-70
2022/04/03 09:45:30;;;;;;;1.70;1.17;;;17.80;24.20;;;;;;10452968;28;20227;-70
2022/04/03 09:50:31;;;;;;;2.40;1.53;;;18.10;26.10;;;;;;10451234;28;20723;-69
2022/04/03 09:55:32;;;;;;;2.40;1.27;;;17.30;25.70;;;;;;10451025;28;20207;-69
2022/04/03 10:00:34;;;;;;;1.50;1.40;;;16.90;26.40;;;;;;10453186;28;20222;-70
2022/04/03 10:05:36;;;;;;;1.47;1.30;;;19.00;24.60;;;;;;10454379;28;20234;-70
2022/04/03 10:10:38;;;;;;;2.47;1.27;;;17.90;23.50;;;;;;10450832;28;20706;-70
2022/04/03 10:15:38;;;;;;;1.60;1.30;;;18.20;24.10;;;;;;10449514;28;20237;-70
2022/04/03 10:20:40;;;;;;;1.30;1.20;;;18.00;24.20;;;;;;10458727;28;20280;-70
2022/04/03 10:25:45;;;;;;;2.33;1.37;;;18.00;24.90;;;;;;10452200;28;20283;-69
2022/04/03 10:30:58;;;;;;;1.50;1.40;;;19.50;23.20;;;;;;10455996;28;20235;-71
2022/04/03 10:36:10;;;;;;;2.50;1.40;;;22.50;22.10;;;;;;10453295;28;20353;-70
2022/04/03 10:41:31;;;;;;;2.37;1.63;;;24.20;22.60;;;;;;10448810;28;20216;-71
2022/04/03 10:46:32;;;;;;;1.70;1.43;;;23.10;21.10;;;;;;10450303;28;20228;-74
2022/04/03 10:51:33;;;;;;;9.03;4.80;;;23.40;23.10;;;;;;10450764;28;20612;-71
2022/04/03 10:56:33;;;;;;;2.70;1.70;;;25.40;21.60;;;;;;10481822;28;20224;-72
2022/04/03 11:01:34;;;;;;;2.63;1.63;;;25.60;19.50;;;;;;10453183;28;20209;-71
2022/04/03 11:06:37;;;;;;;3.37;1.50;;;23.80;20.90;;;;;;10454329;28;20219;-71
2022/04/03 11:11:41;;;;;;;2.57;1.60;;;23.50;20.90;;;;;;10467856;28;20571;-70
2022/04/03 11:16:56;;;;;;;3.97;1.73;;;23.10;21.60;;;;;;10454799;28;20737;-68
2022/04/03 11:21:58;;;;;;;1.80;1.70;;;18.60;24.50;;;;;;10449151;28;20590;-68
2022/04/03 11:26:59;;;;;;;4.37;1.40;;;16.30;28.60;;;;;;10445445;28;20219;-70
2022/04/03 11:32:03;;;;;;;2.67;1.33;;;13.10;30.30;;;;;;10455505;28;20225;-68
2022/04/03 11:37:05;;;;;;;2.80;1.50;;;11.80;32.70;;;;;;10439492;28;20220;-68
2022/04/03 11:42:08;;;;;;;2.60;1.80;;;10.80;34.80;;;;;;10432229;28;20223;-69
2022/04/03 11:47:18;;;;;;;1.83;1.53;;;10.10;35.90;;;;;;10425449;28;20456;-70
2022/04/03 11:52:21;;;;;;;1.93;1.70;;;10.40;37.50;;;;;;10452274;28;20223;-71
2022/04/03 11:57:22;;;;;;;1.60;1.50;;;10.60;36.90;;;;;;10453488;28;20247;-70
2022/04/03 12:02:22;;;;;;;2.40;1.70;;;10.20;37.70;;;;;;10459922;28;20341;-68
2022/04/03 12:07:23;;;;;;;2.50;1.80;;;10.10;38.30;;;;;;10446695;28;20219;-69
2022/04/03 12:12:24;;;;;;;2.80;1.80;;;9.80;39.40;;;;;;10467242;28;20210;-68
2022/04/03 12:17:25;;;;;;;1.57;1.40;;;10.10;40.40;;;;;;10454520;28;20227;-68
2022/04/03 12:22:25;;;;;;;1.97;1.70;;;9.90;40.50;;;;;;10452960;28;20222;-69
2022/04/03 12:27:34;;;;;;;2.67;1.67;;;10.00;39.40;;;;;;10461389;28;20229;-70
2022/04/03 12:32:36;;;;;;;1.97;1.80;;;10.20;39.70;;;;;;10472659;28;20214;-70
2022/04/03 12:37:42;;;;;;;2.67;1.70;;;10.40;38.10;;;;;;10453228;28;20223;-71
2022/04/03 12:42:48;;;;;;;1.90;1.77;;;10.20;40.40;;;;;;10459316;28;20290;-69
2022/04/03 12:47:58;;;;;;;1.90;1.50;;;10.50;40.00;;;;;;10452640;28;20280;-71
2022/04/03 12:53:04;;;;;;;2.67;1.90;;;10.70;39.90;;;;;;10460684;28;20387;-71
2022/04/03 12:58:25;;;;;;;2.20;2.00;;;10.20;39.60;;;;;;10453275;28;20702;-70
2022/04/03 13:03:37;;;;;;;2.23;1.87;;;9.80;39.50;;;;;;10442164;28;20232;-70
2022/04/03 13:08:53;;;;;;;2.63;1.93;;;10.00;40.60;;;;;;10452735;28;20216;-70
2022/04/03 13:13:53;;;;;;;3.30;1.80;;;9.90;40.10;;;;;;10449408;28;20234;-70
2022/04/03 13:18:54;;;;;;;4.53;2.00;;;9.80;38.70;;;;;;10463629;28;20229;-70
2022/04/03 13:23:55;;;;;;;2.53;1.80;;;9.70;40.00;;;;;;10452784;28;20239;-69
2022/04/03 13:28:55;;;;;;;2.10;1.67;;;9.70;38.70;;;;;;10461505;28;20775;-70
2022/04/03 13:33:56;;;;;;;1.87;1.77;;;9.30;40.40;;;;;;10463817;28;20227;-70
2022/04/03 13:38:57;;;;;;;3.30;1.90;;;9.10;40.70;;;;;;10455688;28;20653;-69
2022/04/03 13:43:58;;;;;;;2.87;2.20;;;9.30;41.50;;;;;;10451938;28;20625;-70
2022/04/03 13:48:59;;;;;;;2.83;1.80;;;9.60;40.90;;;;;;10455477;28;20235;-70
2022/04/03 13:54:01;;;;;;;2.50;1.70;;;10.10;40.90;;;;;;10450006;28;20579;-70
2022/04/03 13:59:01;;;;;;;2.07;1.87;;;10.30;39.80;;;;;;10467066;28;20219;-69
2022/04/03 14:04:04;;;;;;;1.73;1.63;;;10.30;40.40;;;;;;10448840;28;20227;-70
2022/04/03 14:09:04;;;;;;;1.97;1.77;;;10.20;39.60;;;;;;10458470;28;20712;-70
2022/04/03 14:14:05;;;;;;;2.47;1.87;;;10.60;40.40;;;;;;10452288;28;20223;-71
2022/04/03 14:19:06;;;;;;;1.77;1.60;;;10.90;40.20;;;;;;10459125;28;20220;-70
2022/04/03 14:24:08;;;;;;;2.23;1.90;;;11.20;39.10;;;;;;10482176;28;20228;-70
2022/04/03 14:29:08;;;;;;;1.80;1.70;;;11.10;38.60;;;;;;10442088;28;20257;-70
2022/04/03 14:34:09;;;;;;;1.90;1.80;;;10.60;38.90;;;;;;10453006;28;20234;-71
2022/04/03 14:39:10;;;;;;;3.37;2.30;;;10.30;38.80;;;;;;10450072;28;20547;-70
2022/04/03 14:44:11;;;;;;;3.40;2.00;;;10.40;39.30;;;;;;10454455;28;20783;-70
2022/04/03 14:49:12;;;;;;;2.73;1.70;;;10.60;39.60;;;;;;10455858;28;20277;-70
2022/04/03 14:54:13;;;;;;;2.13;1.93;;;10.80;39.80;;;;;;10452459;28;20219;-70
2022/04/03 14:59:15;;;;;;;1.63;1.53;;;10.90;41.00;;;;;;10452824;28;20227;-71
2022/04/03 15:04:16;;;;;;;2.60;2.00;;;10.80;39.90;;;;;;10449682;28;20236;-69
2022/04/03 15:09:31;;;;;;;2.70;1.77;;;10.80;38.70;;;;;;10449334;28;20686;-69
2022/04/03 15:14:32;;;;;;;3.27;2.10;;;10.10;39.60;;;;;;10449916;28;20215;-71
2022/04/03 15:19:33;;;;;;;2.57;2.37;;;9.60;41.10;;;;;;10447151;28;20221;-70
2022/04/03 15:24:37;;;;;;;3.60;1.90;;;9.30;41.20;;;;;;10445434;28;20697;-71
2022/04/03 15:29:53;;;;;;;2.93;2.30;;;8.90;42.20;;;;;;10453488;28;20213;-69
2022/04/03 15:34:54;;;;;;;2.47;2.00;;;8.90;43.70;;;;;;10450465;28;20214;-70
2022/04/03 15:39:54;;;;;;;2.67;1.70;;;9.00;42.70;;;;;;10434784;28;20571;-72
2022/04/03 15:44:55;;;;;;;2.10;1.70;;;9.00;41.90;;;;;;10450476;28;20322;-70
2022/04/03 15:49:59;;;;;;;1.87;1.77;;;9.20;42.50;;;;;;10451412;28;20220;-73
2022/04/03 15:55:03;;;;;;;2.77;1.80;;;9.30;42.00;;;;;;10443356;28;20252;-70
2022/04/03 16:00:06;;;;;;;1.87;1.30;;;9.30;42.70;;;;;;10458959;28;20725;-69
2022/04/03 16:05:08;;;;;;;2.57;1.80;;;9.00;42.00;;;;;;10460523;28;20206;-70
2022/04/03 16:10:25;;;;;;;2.60;1.90;;;8.80;42.20;;;;;;10465872;28;20179;-69
2022/04/03 16:15:30;;;;;;;2.57;2.07;;;8.90;43.00;;;;;;10456853;28;20214;-70
2022/04/03 16:20:34;;;;;;;2.07;1.60;;;9.00;42.00;;;;;;10449466;28;20218;-70
2022/04/03 16:25:35;;;;;;;1.60;1.50;;;9.00;42.00;;;;;;10462414;28;20248;-69
2022/04/03 16:30:37;;;;;;;1.73;1.63;;;9.10;42.40;;;;;;10447551;28;20224;-72
2022/04/03 16:35:38;;;;;;;2.57;1.60;;;9.10;43.30;;;;;;10446011;28;20303;-70
2022/04/03 16:40:39;;;;;;;3.10;1.57;;;9.10;42.80;;;;;;10445617;28;20584;-69
2022/04/03 16:45:41;;;;;;;1.90;1.70;;;9.20;44.00;;;;;;10456844;28;20231;-70
2022/04/03 16:50:42;;;;;;;2.17;1.83;;;9.20;42.60;;;;;;10447679;28;20219;-70
2022/04/03 16:55:42;;;;;;;2.20;1.67;;;9.10;42.80;;;;;;10459154;28;20615;-70
2022/04/03 17:00:44;;;;;;;2.03;1.73;;;9.10;42.80;;;;;;10459909;28;20619;-69
2022/04/03 17:05:47;;;;;;;2.17;1.73;;;8.90;43.10;;;;;;10455792;28;20578;-69
2022/04/03 17:10:48;;;;;;;2.60;2.40;;;8.70;43.70;;;;;;10452797;28;20245;-70
2022/04/03 17:15:49;;;;;;;2.80;1.80;;;8.60;44.60;;;;;;10458498;28;20224;-69
2022/04/03 17:20:50;;;;;;;2.47;1.87;;;8.50;45.20;;;;;;10446635;28;20220;-69
2022/04/03 17:25:52;;;;;;;1.77;1.67;;;8.40;45.70;;;;;;10452450;28;20226;-69
2022/04/03 17:30:52;;;;;;;2.50;1.80;;;8.30;46.00;;;;;;10478524;28;20272;-69
2022/04/03 17:35:53;;;;;;;2.80;2.20;;;8.20;46.10;;;;;;10427746;28;20568;-70
2022/04/03 17:40:54;;;;;;;2.13;1.80;;;8.10;46.50;;;;;;10443900;28;20213;-69
2022/04/03 17:45:54;;;;;;;2.70;1.87;;;8.00;47.10;;;;;;10454202;28;20230;-69
2022/04/03 17:50:58;;;;;;;2.93;1.90;;;7.80;47.90;;;;;;10453065;28;20222;-70
2022/04/03 17:55:58;;;;;;;2.27;1.83;;;7.70;48.30;;;;;;10456510;28;20222;-69
2022/04/03 18:01:00;;;;;;;5.77;3.43;;;7.60;49.10;;;;;;10456776;28;20218;-71
2022/04/03 18:06:01;;;;;;;6.20;4.43;;;7.50;50.30;;;;;;10450882;28;20602;-70
2022/04/03 18:11:04;;;;;;;4.07;3.00;;;7.40;50.70;;;;;;10472206;28;20212;-71
2022/04/03 18:16:07;;;;;;;4.63;3.83;;;7.30;51.00;;;;;;10448560;28;20803;-70
2022/04/03 18:21:09;;;;;;;5.20;3.50;;;7.30;51.50;;;;;;10450585;28;20215;-71
2022/04/03 18:26:09;;;;;;;3.27;2.77;;;7.20;51.80;;;;;;10450796;28;20259;-71
2022/04/03 18:31:10;;;;;;;3.33;2.63;;;7.10;51.90;;;;;;10457037;28;20253;-73
2022/04/03 18:36:13;;;;;;;4.70;4.00;;;6.90;52.40;;;;;;10461929;28;20291;-69
2022/04/03 18:41:15;;;;;;;5.70;3.50;;;6.70;55.00;;;;;;10461321;28;20277;-70
2022/04/03 18:46:15;;;;;;;9.80;7.17;;;6.50;56.70;;;;;;10451260;28;20746;-70
2022/04/03 18:51:16;;;;;;;6.90;5.13;;;6.30;58.20;;;;;;10445601;28;20265;-70
2022/04/03 18:56:19;;;;;;;5.20;4.50;;;6.20;59.10;;;;;;10451279;28;20239;-68
2022/04/03 19:01:20;;;;;;;8.77;5.47;;;6.00;60.40;;;;;;10449100;28;20233;-70
2022/04/03 19:06:21;;;;;;;4.90;3.80;;;5.80;61.20;;;;;;10456763;28;20228;-71
2022/04/03 19:11:22;;;;;;;5.03;3.30;;;5.60;62.20;;;;;;10458566;28;20248;-70
2022/04/03 19:16:27;;;;;;;6.97;4.23;;;5.50;62.90;;;;;;10448255;28;20311;-69
2022/04/03 19:21:28;;;;;;;6.73;4.93;;;5.40;63.80;;;;;;10451534;28;20674;-74
2022/04/03 19:26:30;;;;;;;4.10;3.20;;;5.30;64.50;;;;;;10440129;28;20243;-71
2022/04/03 19:31:31;;;;;;;5.10;3.47;;;5.20;64.70;;;;;;10453754;28;20222;-72
2022/04/03 19:36:34;;;;;;;5.20;3.77;;;5.10;65.20;;;;;;10460493;28;20232;-73
2022/04/03 19:41:35;;;;;;;6.83;4.40;;;4.90;66.60;;;;;;10442243;28;20223;-72
2022/04/03 19:46:35;;;;;;;6.00;4.10;;;4.90;67.50;;;;;;10447936;28;20232;-71
2022/04/03 19:51:36;;;;;;;5.13;3.63;;;4.90;68.50;;;;;;10446756;28;20220;-73
2022/04/03 19:56:37;;;;;;;4.83;3.87;;;4.80;68.90;;;;;;10444145;28;20231;-72
2022/04/03 20:01:37;;;;;;;5.47;4.30;;;4.80;69.80;;;;;;10445772;28;20250;-74
2022/04/03 20:06:39;;;;;;;4.63;3.47;;;4.80;70.40;;;;;;10480230;28;20231;-74
2022/04/03 20:11:40;;;;;;;4.67;3.30;;;4.70;71.20;;;;;;10454779;28;20647;-71
2022/04/03 20:16:44;;;;;;;4.70;3.43;;;4.70;71.10;;;;;;10439225;28;20311;-74
2022/04/03 20:21:46;;;;;;;4.80;3.57;;;4.60;72.30;;;;;;10447478;28;20219;-74
2022/04/03 20:26:47;;;;;;;4.73;3.77;;;4.50;73.00;;;;;;10448440;28;20238;-74
2022/04/03 20:31:48;;;;;;;4.90;3.63;;;4.50;74.20;;;;;;10467880;28;20229;-75
2022/04/03 20:36:49;;;;;;;6.43;4.83;;;4.50;75.20;;;;;;10458947;28;20645;-72
2022/04/03 20:41:50;;;;;;;6.10;4.73;;;4.60;75.50;;;;;;10455188;28;20258;-73
2022/04/03 20:46:52;;;;;;;5.37;4.17;;;4.60;73.90;;;;;;10451820;28;20231;-71
2022/04/03 20:51:53;;;;;;;5.03;3.73;;;4.70;74.90;;;;;;10453034;28;20223;-71
2022/04/03 20:56:53;;;;;;;10.23;4.60;;;4.60;76.10;;;;;;10456509;28;20227;-70
2022/04/03 21:01:55;;;;;;;4.63;3.83;;;4.50;77.60;;;;;;10448992;28;20756;-72
2022/04/03 21:06:55;;;;;;;7.20;4.60;;;4.40;78.10;;;;;;10461759;28;20232;-75
2022/04/03 21:11:57;;;;;;;5.90;4.73;;;4.30;79.80;;;;;;10458645;28;20268;-72
2022/04/03 21:17:00;;;;;;;7.40;4.23;;;4.20;81.00;;;;;;10451648;28;20204;-71
2022/04/03 21:22:00;;;;;;;5.13;3.10;;;4.00;81.00;;;;;;10458238;28;20842;-70
2022/04/03 21:27:01;;;;;;;6.23;4.60;;;3.80;82.50;;;;;;10453884;28;20224;-72
2022/04/03 21:32:03;;;;;;;4.37;3.83;;;3.80;83.30;;;;;;10456945;28;20215;-72
2022/04/03 21:37:04;;;;;;;6.03;3.97;;;3.80;83.40;;;;;;10451346;28;20437;-71
2022/04/03 21:42:05;;;;;;;4.67;4.13;;;3.70;84.70;;;;;;10454989;28;20334;-72
2022/04/03 21:47:06;;;;;;;6.13;4.30;;;3.60;86.10;;;;;;10457533;28;20270;-71
2022/04/03 21:52:06;;;;;;;7.10;5.03;;;3.60;87.00;;;;;;10455514;28;20646;-71
2022/04/03 21:57:07;;;;;;;5.53;4.37;;;3.60;88.00;;;;;;10458271;28;20215;-69
2022/04/03 22:02:08;;;;;;;5.77;3.97;;;3.50;87.50;;;;;;10453868;28;20291;-70
2022/04/03 22:07:08;;;;;;;9.37;4.67;;;3.50;88.30;;;;;;10458647;28;20225;-71
2022/04/03 22:12:09;;;;;;;6.23;4.50;;;3.50;88.60;;;;;;10453236;28;20219;-70
2022/04/03 22:17:09;;;;;;;4.60;3.90;;;3.40;88.90;;;;;;10452537;28;20295;-71
2022/04/03 22:22:10;;;;;;;7.23;4.10;;;3.40;89.20;;;;;;10455599;28;20587;-70
2022/04/03 22:27:11;;;;;;;5.83;3.80;;;3.30;89.40;;;;;;10456012;28;20835;-70
2022/04/03 22:32:11;;;;;;;5.03;4.13;;;3.20;89.70;;;;;;10453705;28;20250;-71
2022/04/03 22:37:12;;;;;;;6.40;4.23;;;3.20;90.10;;;;;;10449425;28;20652;-72
2022/04/03 22:42:13;;;;;;;5.27;4.37;;;3.10;90.40;;;;;;10447551;28;20223;-72
2022/04/03 22:47:14;;;;;;;6.10;4.40;;;3.10;90.70;;;;;;10451744;28;20235;-70
2022/04/03 22:52:15;;;;;;;6.67;4.73;;;3.10;90.60;;;;;;10449750;28;20247;-70
2022/04/03 22:57:15;;;;;;;5.70;4.50;;;3.10;90.80;;;;;;10452521;28;20242;-71
2022/04/03 23:02:16;;;;;;;6.27;4.23;;;3.00;91.20;;;;;;10443882;28;20223;-71
2022/04/03 23:07:17;;;;;;;5.23;4.10;;;2.90;91.80;;;;;;10448419;28;20235;-70
2022/04/03 23:12:17;;;;;;;4.97;4.30;;;2.90;91.80;;;;;;10451686;28;20235;-70
2022/04/03 23:17:18;;;;;;;5.23;4.17;;;2.80;92.00;;;;;;10441603;28;20216;-70
2022/04/03 23:22:20;;;;;;;5.00;3.90;;;2.80;92.50;;;;;;10450426;28;20239;-71
2022/04/03 23:27:21;;;;;;;6.40;4.13;;;2.80;92.80;;;;;;10456832;28;20597;-70
2022/04/03 23:32:22;;;;;;;7.53;4.53;;;2.80;93.00;;;;;;10453297;28;20274;-69
2022/04/03 23:37:25;;;;;;;6.33;4.80;;;2.70;93.30;;;;;;10448265;28;20691;-71
2022/04/03 23:42:25;;;;;;;6.20;4.57;;;2.70;93.90;;;;;;10444658;28;20220;-71
2022/04/03 23:47:26;;;;;;;7.90;4.93;;;2.70;94.70;;;;;;10447980;28;20613;-71
2022/04/03 23:52:27;;;;;;;5.27;4.23;;;2.70;95.30;;;;;;10455055;28;20220;-70
2022/04/03 23:57:27;;;;;;;7.63;5.03;;;2.60;96.00;;;;;;10449875;28;20220;-70
